Time;durP1;ratioP1;P1;durP2;ratioP2;P2;SDS_P1;SDS_P2;PMS_P1;PMS_P2;Temp;Humidity;BMP_temperature;BMP_pressure;BME280_temperature;BME280_humidity;BME280_pressure;Samples;Min_cycle;Max_cycle;Signal;HPM_P1;HPM_P2
2022/10/10 00:01:30;;;;;;;15.30;13.50;;;;;;;6.74;84.98;98831.06;107016;1272;22401;-91
2022/10/10 00:04:00;;;;;;;14.90;13.30;;;;;;;6.72;85.02;98828.91;106797;1297;22162;-86
2022/10/10 00:06:28;;;;;;;17.00;13.40;;;;;;;6.69;85.06;98826.36;106761;1308;23862;-91
2022/10/10 00:09:01;;;;;;;14.50;13.00;;;;;;;6.68;84.92;98824.84;106707;1283;22500;-91
2022/10/10 00:11:30;;;;;;;15.10;12.80;;;;;;;6.68;85.05;98823.51;106479;1293;23262;-92
2022/10/10 00:13:58;;;;;;;14.80;13.30;;;;;;;6.70;85.48;98823.14;106568;1289;23784;-90
2022/10/10 00:16:26;;;;;;;15.70;14.00;;;;;;;6.67;85.82;98826.72;106663;1310;22076;-88
2022/10/10 00:18:59;;;;;;;15.40;13.80;;;;;;;6.63;85.68;98824.08;107224;1281;22386;-86
2022/10/10 00:21:33;;;;;;;17.10;13.60;;;;;;;6.58;85.83;98826.56;107046;1277;22620;31
2022/10/10 00:24:06;;;;;;;15.90;13.90;;;;;;;6.56;85.87;98815.87;107183;1281;22350;31
2022/10/10 00:26:39;;;;;;;14.40;12.30;;;;;;;6.56;86.22;98809.70;107856;1278;22596;-90
2022/10/10 00:29:12;;;;;;;17.40;13.40;;;;;;;6.55;86.56;98806.42;99741;1278;24163;-83
2022/10/10 00:31:46;;;;;;;17.90;14.10;;;;;;;6.50;86.52;98798.00;107486;1280;23104;31
2022/10/10 00:34:19;;;;;;;15.00;13.40;;;;;;;6.50;86.73;98799.77;107628;1282;22462;-81
2022/10/10 00:36:52;;;;;;;15.00;12.90;;;;;;;6.47;86.54;98796.48;108128;1280;22268;31
2022/10/10 00:39:25;;;;;;;13.70;12.10;;;;;;;6.49;86.91;98794.78;106399;1278;22305;31
2022/10/10 00:41:53;;;;;;;19.10;12.60;;;;;;;6.52;87.38;98792.14;106946;1293;21949;-88
2022/10/10 00:44:21;;;;;;;13.00;11.40;;;;;;;6.53;87.14;98791.88;107038;1278;22917;-85
2022/10/10 00:46:49;;;;;;;15.50;12.80;;;;;;;6.55;87.36;98789.29;106754;1303;22201;-91
2022/10/10 00:49:21;;;;;;;16.40;12.70;;;;;;;6.56;87.24;98783.80;106714;1310;23764;-85
2022/10/10 00:51:53;;;;;;;16.30;11.50;;;;;;;6.54;87.32;98783.02;107500;1281;23908;-88
2022/10/10 00:54:22;;;;;;;14.60;11.90;;;;;;;6.55;87.31;98779.70;106851;1303;22186;-84
2022/10/10 00:56:57;;;;;;;12.80;11.20;;;;;;;6.58;87.22;98776.25;107740;1265;22240;-85
2022/10/10 00:59:33;;;;;;;12.70;11.40;;;;;;;6.61;87.46;98774.19;107983;1278;22316;31
2022/10/10 01:02:06;;;;;;;14.30;12.10;;;;;;;6.62;87.63;98776.19;107415;1280;22507;-86
2022/10/10 01:04:42;;;;;;;13.30;11.90;;;;;;;6.59;87.47;98772.67;107271;1286;22843;-90
2022/10/10 01:07:17;;;;;;;17.10;12.10;;;;;;;6.57;87.55;98767.36;106827;1307;21979;-85
2022/10/10 01:09:47;;;;;;;17.20;11.70;;;;;;;6.56;87.44;98766.02;107021;1277;22426;-88
2022/10/10 01:12:39;;;;;;;14.70;11.50;;;;;;;6.55;87.62;98762.95;106705;1293;23671;-86
2022/10/10 01:15:22;;;;;;;14.50;12.10;;;;;;;6.60;87.62;98768.30;106723;1303;22755;-91
2022/10/10 01:18:03;;;;;;;17.10;12.40;;;;;;;6.59;87.50;98764.21;107457;1277;22155;-88
2022/10/10 01:20:57;;;;;;;16.60;12.90;;;;;;;6.57;87.68;98762.91;107519;1280;22175;-87
2022/10/10 01:23:40;;;;;;;14.20;11.30;;;;;;;6.56;87.68;98757.27;107141;1281;22220;-89
2022/10/10 01:26:45;;;;;;;16.10;12.20;;;;;;;6.58;87.67;98757.34;107222;1300;22197;-85
2022/10/10 01:29:30;;;;;;;19.10;12.80;;;;;;;6.60;87.93;98756.89;107389;1268;24229;-87
2022/10/10 01:32:27;;;;;;;15.00;13.40;;;;;;;6.57;87.76;98755.46;108033;1268;22768;31
2022/10/10 01:35:30;;;;;;;16.70;13.10;;;;;;;6.55;87.66;98758.59;103553;1273;22280;31
2022/10/10 01:38:06;;;;;;;16.10;13.50;;;;;;;6.53;87.73;98754.73;107222;1264;24681;-88
2022/10/10 01:40:54;;;;;;;16.10;13.60;;;;;;;6.53;88.02;98751.98;107457;1269;22023;-88
2022/10/10 01:43:29;;;;;;;15.30;13.70;;;;;;;6.51;87.76;98750.36;107581;1274;21909;-82
2022/10/10 01:46:11;;;;;;;14.60;13.10;;;;;;;6.47;87.72;98749.47;107325;1270;22330;-83
2022/10/10 01:48:48;;;;;;;17.50;13.30;;;;;;;6.44;87.76;98745.52;107609;1281;23062;-87
2022/10/10 01:51:44;;;;;;;14.20;11.40;;;;;;;6.43;88.03;98743.36;106971;1300;21910;-84
2022/10/10 01:55:10;;;;;;;14.00;11.60;;;;;;;6.43;88.22;98742.52;107227;1271;22125;-85
2022/10/10 01:58:05;;;;;;;13.80;12.40;;;;;;;6.44;88.28;98740.75;102313;1271;22344;-84
2022/10/10 02:00:49;;;;;;;14.70;12.10;;;;;;;6.43;88.29;98736.67;107236;1295;22021;-91
2022/10/10 02:03:28;;;;;;;15.70;11.80;;;;;;;6.42;88.16;98737.73;107113;1288;22223;-90
2022/10/10 02:06:06;;;;;;;14.30;11.10;;;;;;;6.42;87.91;98737.68;107039;1282;22019;-87
2022/10/10 02:08:39;;;;;;;12.30;10.90;;;;;;;6.43;88.13;98735.29;106901;1309;22954;-90
2022/10/10 02:11:09;;;;;;;13.10;11.70;;;;;;;6.44;88.27;98735.44;106855;1309;22077;-88
2022/10/10 02:13:42;;;;;;;17.20;12.00;;;;;;;6.43;88.55;98729.18;106920;1310;22166;-84
2022/10/10 02:16:36;;;;;;;18.10;11.80;;;;;;;6.37;88.10;98732.92;107000;1307;23013;-88
2022/10/10 02:19:09;;;;;;;14.60;11.30;;;;;;;6.35;88.02;98734.92;106909;1309;23093;-89
2022/10/10 02:21:45;;;;;;;14.60;10.80;;;;;;;6.35;88.52;98732.73;107446;1272;21847;-87
2022/10/10 02:24:14;;;;;;;14.30;11.70;;;;;;;6.35;88.60;98733.07;107242;1294;22172;-87
2022/10/10 02:26:45;;;;;;;13.70;11.40;;;;;;;6.32;88.40;98728.36;107002;1315;21922;-91
2022/10/10 02:29:21;;;;;;;14.80;10.90;;;;;;;6.29;88.34;98733.30;107008;1309;22058;-88
2022/10/10 02:31:57;;;;;;;15.10;11.60;;;;;;;6.26;88.20;98730.60;106971;1309;22196;-89
2022/10/10 02:34:37;;;;;;;12.90;10.20;;;;;;;6.27;88.27;98735.52;107149;1280;22948;-87
2022/10/10 02:37:09;;;;;;;12.60;10.50;;;;;;;6.28;88.50;98732.16;106910;1306;22184;-89
2022/10/10 02:39:41;;;;;;;12.50;10.80;;;;;;;6.29;88.59;98730.36;107131;1293;22037;-90
2022/10/10 02:42:13;;;;;;;17.90;11.70;;;;;;;6.27;88.52;98724.88;106881;1309;22127;-93
2022/10/10 02:44:47;;;;;;;12.20;11.00;;;;;;;6.25;88.59;98728.17;107111;1281;21902;-89
2022/10/10 02:47:20;;;;;;;14.30;11.80;;;;;;;6.22;88.58;98729.41;107671;1271;21893;-88
2022/10/10 02:49:53;;;;;;;15.60;11.50;;;;;;;6.21;88.44;98732.08;108240;1274;22243;31
2022/10/10 02:52:21;;;;;;;12.70;11.50;;;;;;;6.20;88.23;98725.11;107104;1280;22267;-87
2022/10/10 02:54:49;;;;;;;17.30;11.30;;;;;;;6.18;88.39;98723.23;107240;1290;22182;-88
2022/10/10 02:57:22;;;;;;;13.30;11.80;;;;;;;6.15;88.35;98721.59;107341;1271;22179;-87
2022/10/10 02:59:56;;;;;;;14.50;11.50;;;;;;;6.11;88.42;98722.23;107301;1272;22320;31
2022/10/10 03:02:24;;;;;;;16.10;11.90;;;;;;;6.09;88.41;98720.23;107199;1300;22192;-84
2022/10/10 03:04:51;;;;;;;12.60;10.40;;;;;;;6.09;88.50;98721.41;107181;1306;22197;-89
2022/10/10 03:07:19;;;;;;;13.60;11.00;;;;;;;6.10;88.43;98719.98;107059;1306;22065;-84
2022/10/10 03:09:47;;;;;;;13.00;10.60;;;;;;;6.11;88.57;98719.66;107050;1303;22255;-88
2022/10/10 03:12:15;;;;;;;12.70;11.40;;;;;;;6.10;88.74;98720.13;107362;1287;22155;-88
2022/10/10 03:14:43;;;;;;;12.40;11.10;;;;;;;6.07;88.54;98714.63;107098;1309;22184;-91
2022/10/10 03:17:16;;;;;;;12.60;10.20;;;;;;;6.08;88.68;98714.38;107261;1271;22420;-87
2022/10/10 03:19:43;;;;;;;13.50;10.10;;;;;;;6.09;88.78;98712.10;107373;1280;21868;-91
2022/10/10 03:22:11;;;;;;;11.20;9.50;;;;;;;6.12;88.77;98703.14;107197;1280;22028;-84
2022/10/10 03:24:44;;;;;;;12.10;10.00;;;;;;;6.13;88.73;98697.53;107494;1270;22231;-84
2022/10/10 03:27:17;;;;;;;12.60;10.60;;;;;;;6.14;88.80;98697.34;107601;1278;22637;31
2022/10/10 03:29:50;;;;;;;11.60;9.90;;;;;;;6.15;88.68;98691.55;107847;1278;23244;31
2022/10/10 03:32:18;;;;;;;10.80;8.60;;;;;;;6.16;88.61;98689.75;108123;1281;22003;-80
2022/10/10 03:34:51;;;;;;;11.10;8.60;;;;;;;6.21;88.80;98691.57;108247;1280;22364;31
2022/10/10 03:37:24;;;;;;;12.90;9.70;;;;;;;6.25;88.65;98690.17;107555;1281;22223;31
2022/10/10 03:39:57;;;;;;;11.30;8.40;;;;;;;6.27;88.74;98689.88;107256;1280;21922;31
2022/10/10 03:42:30;;;;;;;11.80;9.90;;;;;;;6.28;88.54;98686.30;100937;1279;22673;-81
2022/10/10 03:45:03;;;;;;;10.70;8.20;;;;;;;6.26;88.60;98683.92;107585;1280;22899;-84
2022/10/10 03:47:36;;;;;;;11.00;8.90;;;;;;;6.25;88.57;98684.02;108037;1279;22258;31
2022/10/10 03:50:09;;;;;;;11.20;8.20;;;;;;;6.28;88.51;98689.50;107442;1284;22267;31
2022/10/10 03:52:37;;;;;;;10.00;7.90;;;;;;;6.31;88.43;98690.13;107572;1280;22548;-86
2022/10/10 03:55:11;;;;;;;10.50;8.10;;;;;;;6.31;88.33;98691.79;107417;1272;22283;-84
2022/10/10 03:57:43;;;;;;;14.20;9.20;;;;;;;6.30;88.18;98688.98;107470;1284;22282;31
2022/10/10 04:00:18;;;;;;;17.40;8.50;;;;;;;6.27;88.10;98689.55;104168;1277;22610;-84
2022/10/10 04:02:52;;;;;;;;;;;;;;;6.28;88.07;98687.30;107481;1280;22397;-81
2022/10/10 04:05:25;;;;;;;13.10;7.80;;;;;;;6.29;87.97;98687.11;108183;1278;23270;-83
2022/10/10 04:07:58;;;;;;;11.90;8.30;;;;;;;6.31;87.99;98688.25;100754;1264;22552;-87
2022/10/10 04:10:31;;;;;;;10.30;7.90;;;;;;;6.31;87.74;98683.97;107134;1280;22250;31
2022/10/10 04:12:59;;;;;;;11.70;8.90;;;;;;;6.28;87.83;98681.75;107054;1275;22219;-86
2022/10/10 04:15:32;;;;;;;16.10;8.40;;;;;;;6.24;87.73;98679.45;108151;1274;22279;31
2022/10/10 04:18:05;;;;;;;12.90;7.80;;;;;;;6.21;87.85;98676.11;107567;1274;22227;-86
2022/10/10 04:20:33;;;;;;;14.20;7.90;;;;;;;6.23;88.00;98677.73;107198;1269;22549;-86
2022/10/10 04:23:02;;;;;;;9.80;7.90;;;;;;;6.24;87.93;98673.84;107009;1309;22195;-89
2022/10/10 04:25:30;;;;;;;11.00;7.90;;;;;;;6.24;87.91;98676.41;106978;1309;22179;-88
2022/10/10 04:28:03;;;;;;;33.60;10.30;;;;;;;6.06;87.82;98654.48;107291;1272;21864;-91
2022/10/10 04:30:36;;;;;;;10.60;7.90;;;;;;;6.19;87.81;98676.50;107702;1271;23647;-91
2022/10/10 04:33:10;;;;;;;10.50;7.80;;;;;;;6.17;87.75;98675.78;107912;1275;22343;-93
2022/10/10 04:35:46;;;;;;;10.20;7.90;;;;;;;6.18;87.86;98673.83;108471;1278;22371;-83
2022/10/10 04:38:21;;;;;;;10.20;7.50;;;;;;;6.16;87.84;98671.11;104978;1273;22102;-81
2022/10/10 04:40:54;;;;;;;12.10;8.40;;;;;;;6.15;87.83;98670.37;108937;1277;23539;31
2022/10/10 04:43:27;;;;;;;10.70;8.10;;;;;;;6.11;87.71;98668.78;108160;1277;22012;-83
2022/10/10 04:46:00;;;;;;;14.00;8.40;;;;;;;6.08;87.72;98667.51;108645;1271;22320;31
2022/10/10 04:48:35;;;;;;;8.40;7.20;;;;;;;6.08;87.79;98665.04;107857;1281;24149;31
2022/10/10 04:51:13;;;;;;;12.00;7.90;;;;;;;6.09;87.94;98662.64;108044;1268;22361;31
2022/10/10 04:54:00;;;;;;;13.70;8.20;;;;;;;6.11;87.97;98660.42;102629;1283;22350;-82
2022/10/10 04:56:33;;;;;;;12.40;8.10;;;;;;;6.12;87.91;98661.83;102478;1269;22120;31
2022/10/10 04:59:06;;;;;;;11.80;8.30;;;;;;;6.12;87.70;98660.17;108052;1272;22315;-92
2022/10/10 05:01:40;;;;;;;12.40;7.40;;;;;;;6.11;87.57;98662.45;108087;1282;22710;31
2022/10/10 05:04:09;;;;;;;9.70;7.30;;;;;;;6.11;87.68;98663.89;107378;1281;24600;-87
2022/10/10 05:06:37;;;;;;;11.00;7.90;;;;;;;6.13;87.70;98662.21;107847;1269;22397;-88
2022/10/10 05:09:09;;;;;;;12.80;7.70;;;;;;;6.12;87.77;98657.64;107638;1272;22293;31
2022/10/10 05:11:44;;;;;;;12.10;8.00;;;;;;;6.19;87.58;98665.60;107310;1278;22289;31
2022/10/10 05:14:17;;;;;;;14.10;7.90;;;;;;;6.18;87.18;98663.65;102571;1277;22304;-89
2022/10/10 05:16:54;;;;;;;11.90;7.70;;;;;;;6.07;87.11;98647.70;107499;1273;22254;31
2022/10/10 05:19:29;;;;;;;10.00;7.80;;;;;;;6.04;87.20;98641.30;107663;1276;22378;31
2022/10/10 05:22:03;;;;;;;10.90;6.50;;;;;;;6.19;87.27;98651.30;107865;1278;24259;31
2022/10/10 05:24:36;;;;;;;8.60;6.70;;;;;;;6.23;87.03;98652.99;107379;1283;22159;-86
2022/10/10 05:27:04;;;;;;;10.70;7.10;;;;;;;6.23;87.01;98648.50;107218;1272;22186;-86
2022/10/10 05:29:37;;;;;;;8.40;6.90;;;;;;;6.24;86.79;98649.88;107431;1281;22270;31
2022/10/10 05:32:10;;;;;;;15.30;7.20;;;;;;;6.25;86.47;98650.14;108106;1279;22293;31
2022/10/10 05:34:44;;;;;;;7.80;6.00;;;;;;;6.26;86.35;98656.36;108580;1272;22233;31
2022/10/10 05:37:17;;;;;;;16.70;7.30;;;;;;;6.29;86.38;98654.08;107363;1286;22676;-87
2022/10/10 05:39:50;;;;;;;9.30;6.90;;;;;;;6.35;86.44;98653.08;107930;1282;23989;31
2022/10/10 05:42:26;;;;;;;10.90;7.90;;;;;;;6.41;86.44;98656.33;107757;1283;22293;31
2022/10/10 05:45:00;;;;;;;12.10;8.80;;;;;;;6.43;86.26;98658.02;101883;1276;22073;-81
2022/10/10 05:47:33;;;;;;;9.80;8.80;;;;;;;6.45;85.96;98655.31;108430;1268;23739;31
2022/10/10 05:50:10;;;;;;;15.70;8.50;;;;;;;6.47;86.15;98661.67;108590;1273;23361;31
2022/10/10 05:52:43;;;;;;;11.90;8.80;;;;;;;6.54;85.91;98668.63;108291;1279;23840;31
2022/10/10 05:55:17;;;;;;;13.50;8.80;;;;;;;6.60;85.88;98668.09;107654;1282;22378;-85
2022/10/10 05:57:50;;;;;;;8.90;8.00;;;;;;;6.70;85.90;98669.95;107561;1273;22679;31
2022/10/10 06:00:18;;;;;;;14.30;9.60;;;;;;;6.76;85.85;98672.95;107880;1283;22321;-89
2022/10/10 06:02:51;;;;;;;10.80;9.40;;;;;;;6.78;85.76;98671.31;107902;1271;22277;-89
2022/10/10 06:05:24;;;;;;;14.40;8.30;;;;;;;6.82;85.42;98670.86;101165;1272;22254;-83
2022/10/10 06:07:57;;;;;;;10.20;7.80;;;;;;;6.85;85.41;98670.83;107434;1282;22334;31
2022/10/10 06:10:43;;;;;;;10.40;8.30;;;;;;;6.84;85.09;98668.42;107234;1274;23058;-88
2022/10/10 06:13:18;;;;;;;12.40;8.60;;;;;;;6.95;85.28;98675.20;107000;1286;22327;-89
2022/10/10 06:15:56;;;;;;;9.80;7.30;;;;;;;7.03;84.74;98674.67;107041;1279;22252;-88
2022/10/10 06:18:30;;;;;;;13.40;8.00;;;;;;;7.08;84.68;98676.36;98867;1273;22115;-82
2022/10/10 06:21:05;;;;;;;12.80;7.70;;;;;;;7.12;84.56;98672.70;102932;1271;25202;-85
2022/10/10 06:23:40;;;;;;;10.80;8.60;;;;;;;7.16;84.41;98673.86;107953;1280;22618;31
2022/10/10 06:26:09;;;;;;;12.90;7.20;;;;;;;7.19;84.34;98677.15;106951;1310;22184;-86
2022/10/10 06:28:37;;;;;;;13.80;7.30;;;;;;;7.23;83.75;98677.23;107566;1274;22412;-84
2022/10/10 06:31:12;;;;;;;9.00;6.50;;;;;;;7.30;83.50;98675.23;107122;1281;22448;-91
2022/10/10 06:33:42;;;;;;;9.50;7.70;;;;;;;7.35;83.36;98676.83;107018;1288;22170;-86
2022/10/10 06:36:12;;;;;;;12.40;6.90;;;;;;;7.39;83.14;98678.95;107115;1281;22176;-88
2022/10/10 06:38:42;;;;;;;12.10;7.80;;;;;;;7.42;83.04;98673.60;106969;1309;22215;-87
2022/10/10 06:41:16;;;;;;;9.60;7.70;;;;;;;7.45;82.75;98679.89;107385;1273;23878;-89
2022/10/10 06:43:44;;;;;;;13.70;7.40;;;;;;;7.49;82.88;98687.32;106946;1274;22151;-87
2022/10/10 06:46:17;;;;;;;13.80;8.00;;;;;;;7.56;83.25;98683.35;108146;1273;22564;31
2022/10/10 06:48:50;;;;;;;11.30;8.30;;;;;;;7.67;82.35;98687.05;107837;1281;22643;31
2022/10/10 06:51:24;;;;;;;9.40;8.10;;;;;;;7.69;82.04;98686.58;107953;1274;22377;-86
2022/10/10 06:53:58;;;;;;;10.70;8.10;;;;;;;7.72;82.15;98681.39;108230;1281;22566;-87
2022/10/10 06:56:31;;;;;;;11.90;8.60;;;;;;;7.75;82.20;98678.98;107297;1267;23847;-86
2022/10/10 06:59:05;;;;;;;9.70;7.50;;;;;;;7.81;82.13;98673.11;100882;1280;22306;31
2022/10/10 07:01:33;;;;;;;12.40;7.20;;;;;;;7.89;81.54;98676.80;107334;1274;23027;-89
2022/10/10 07:04:12;;;;;;;9.00;7.70;;;;;;;7.97;81.50;98678.55;107333;1275;22031;-87
2022/10/10 07:06:40;;;;;;;13.10;7.50;;;;;;;8.07;81.20;98676.65;107205;1283;22223;-87
2022/10/10 07:09:08;;;;;;;8.00;6.80;;;;;;;8.11;81.00;98673.13;107351;1280;22935;-91
2022/10/10 07:11:36;;;;;;;11.50;7.30;;;;;;;8.16;80.05;98674.59;107016;1303;22207;-92
2022/10/10 07:14:03;;;;;;;9.80;8.00;;;;;;;8.22;80.17;98668.49;107322;1295;22230;-90
2022/10/10 07:16:32;;;;;;;10.50;7.60;;;;;;;8.30;79.47;98667.00;107321;1287;22171;-93
2022/10/10 07:19:00;;;;;;;11.90;7.00;;;;;;;8.37;79.70;98666.44;107292;1299;22002;-90
2022/10/10 07:21:28;;;;;;;10.80;6.50;;;;;;;8.48;79.40;98664.84;107323;1299;22185;-91
2022/10/10 07:23:56;;;;;;;7.60;5.70;;;;;;;8.61;79.27;98661.89;107078;1301;22075;-90
2022/10/10 07:26:27;;;;;;;11.20;7.10;;;;;;;8.73;79.61;98665.02;107133;1308;22230;-90
2022/10/10 07:28:54;;;;;;;10.40;6.70;;;;;;;8.86;79.50;98661.52;107112;1308;22207;-88
2022/10/10 07:31:22;;;;;;;12.30;8.60;;;;;;;8.97;78.19;98662.07;107005;1307;22941;-91
2022/10/10 07:33:50;;;;;;;11.20;8.30;;;;;;;9.04;78.38;98660.18;107141;1309;21983;-90
2022/10/10 07:36:18;;;;;;;11.90;8.60;;;;;;;9.13;77.73;98665.02;107046;1291;22199;-89
2022/10/10 07:38:53;;;;;;;9.20;7.30;;;;;;;9.21;77.89;98666.02;107145;1302;22215;-91
2022/10/10 07:41:21;;;;;;;11.60;6.70;;;;;;;9.32;77.81;98659.73;107120;1300;22148;-90
2022/10/10 07:43:53;;;;;;;9.30;6.20;;;;;;;9.42;77.03;98663.95;107167;1283;22249;-87
2022/10/10 07:46:22;;;;;;;8.10;6.30;;;;;;;9.52;77.00;98663.83;107007;1282;22097;-91
2022/10/10 07:48:49;;;;;;;6.80;5.90;;;;;;;9.62;76.95;98659.33;106895;1311;22102;-88
2022/10/10 07:51:17;;;;;;;7.80;6.00;;;;;;;9.70;76.14;98657.31;106920;1309;21920;-91
2022/10/10 07:53:45;;;;;;;8.60;6.60;;;;;;;9.78;76.49;98660.25;106917;1306;22196;-92
2022/10/10 07:56:13;;;;;;;9.00;5.90;;;;;;;9.87;75.20;98655.96;106848;1310;22223;-91
2022/10/10 07:58:41;;;;;;;7.50;5.50;;;;;;;9.94;74.91;98657.72;106874;1306;22707;-90
2022/10/10 08:01:11;;;;;;;9.20;5.80;;;;;;;9.99;74.59;98659.36;107103;1292;22185;-92
2022/10/10 08:03:40;;;;;;;11.80;5.80;;;;;;;10.08;74.91;98659.97;107107;1283;22848;-94
2022/10/10 08:06:11;;;;;;;9.30;6.10;;;;;;;10.17;73.94;98663.06;107094;1302;22051;-92
2022/10/10 08:08:41;;;;;;;12.60;6.90;;;;;;;10.24;73.67;98663.19;106877;1304;22959;-91
2022/10/10 08:11:20;;;;;;;10.30;6.60;;;;;;;10.32;73.16;98660.41;106830;1310;22232;-91
2022/10/10 08:13:49;;;;;;;8.60;6.30;;;;;;;10.39;73.26;98660.38;106789;1310;22176;-91
2022/10/10 08:16:18;;;;;;;7.50;5.40;;;;;;;10.48;72.90;98658.48;106785;1310;22211;-93
2022/10/10 08:18:46;;;;;;;7.90;5.10;;;;;;;10.57;72.69;98661.40;106819;1310;22061;-93
2022/10/10 08:21:14;;;;;;;11.20;5.90;;;;;;;10.65;72.36;98657.73;106829;1306;22202;-88
2022/10/10 08:23:43;;;;;;;7.20;5.20;;;;;;;10.73;72.84;98647.58;106925;1298;22157;-93
2022/10/10 08:26:14;;;;;;;10.50;5.80;;;;;;;10.84;72.60;98648.48;107083;1305;22168;-91
2022/10/10 08:28:43;;;;;;;19.10;7.30;;;;;;;10.97;71.63;98647.83;106950;1306;21988;-88
2022/10/10 08:31:17;;;;;;;13.00;5.90;;;;;;;11.08;70.90;98654.04;106981;1302;22167;-94
2022/10/10 08:33:47;;;;;;;7.90;5.90;;;;;;;11.15;70.78;98651.34;106856;1312;22694;-94
2022/10/10 08:36:18;;;;;;;7.60;4.80;;;;;;;11.21;70.08;98651.23;106867;1311;22207;-94
2022/10/10 08:38:46;;;;;;;8.10;4.40;;;;;;;11.24;69.45;98647.27;106738;1311;22109;-93
2022/10/10 08:41:39;;;;;;;8.10;4.60;;;;;;;11.25;68.80;98643.96;106824;1311;22179;-92
2022/10/10 08:44:24;;;;;;;17.20;6.10;;;;;;;11.30;69.75;98644.13;107121;1290;22206;-94
2022/10/10 08:46:59;;;;;;;6.80;4.70;;;;;;;11.37;68.74;98639.52;106874;1312;22265;-95
2022/10/10 08:49:37;;;;;;;10.10;5.00;;;;;;;11.42;67.82;98633.05;106730;1305;22840;-92
2022/10/10 08:52:11;;;;;;;7.10;4.80;;;;;;;11.47;67.47;98634.61;106839;1306;22218;-90
2022/10/10 08:54:40;;;;;;;8.10;5.10;;;;;;;11.55;67.79;98625.09;106908;1310;22164;-92
2022/10/10 08:57:22;;;;;;;7.20;4.40;;;;;;;11.63;67.72;98623.87;106846;1306;22203;-90
2022/10/10 08:59:58;;;;;;;9.30;4.60;;;;;;;11.69;65.56;98625.36;106815;1312;22219;-94
2022/10/10 09:02:40;;;;;;;19.00;4.90;;;;;;;11.76;65.58;98624.42;106869;1299;22056;-92
2022/10/10 09:05:43;;;;;;;6.80;4.30;;;;;;;11.86;65.85;98623.94;107135;1304;22090;-94
2022/10/10 09:08:24;;;;;;;8.30;4.40;;;;;;;11.96;65.27;98618.80;106953;1294;23064;-90
2022/10/10 09:10:55;;;;;;;10.30;5.10;;;;;;;12.05;64.83;98614.54;106949;1300;22227;-90
2022/10/10 09:13:35;;;;;;;12.10;5.10;;;;;;;12.17;66.29;98613.83;107214;1295;21929;-86
2022/10/10 09:16:16;;;;;;;7.50;4.70;;;;;;;12.36;66.96;98613.13;107015;1312;22302;-86
2022/10/10 09:19:12;;;;;;;7.50;4.70;;;;;;;12.53;64.73;98612.55;107212;1289;22060;-90
2022/10/10 09:21:45;;;;;;;6.30;4.90;;;;;;;12.64;65.21;98605.40;107222;1286;21955;-88
2022/10/10 09:24:32;;;;;;;8.80;4.50;;;;;;;12.77;65.08;98596.38;106927;1312;22159;-88
2022/10/10 09:27:03;;;;;;;10.30;4.70;;;;;;;12.90;64.22;98594.91;106790;1312;22223;-93
2022/10/10 09:29:46;;;;;;;7.90;4.40;;;;;;;12.98;64.55;98589.70;106902;1312;22086;-90
2022/10/10 09:32:23;;;;;;;6.90;4.40;;;;;;;13.10;64.00;98588.73;106935;1303;22209;-94
2022/10/10 09:35:18;;;;;;;7.00;4.40;;;;;;;13.23;63.95;98590.61;106933;1292;22815;-93
2022/10/10 09:37:52;;;;;;;7.10;4.50;;;;;;;13.39;63.44;98586.27;106790;1306;22313;-92
2022/10/10 09:40:23;;;;;;;;;;;;;;;13.51;64.02;98587.23;107039;1305;22313;-91
2022/10/10 09:42:51;;;;;;;8.70;4.10;;;;;;;13.66;64.62;98586.57;106776;1312;22075;-93
2022/10/10 09:45:29;;;;;;;7.60;4.10;;;;;;;13.82;64.43;98586.92;106794;1312;23028;-90
2022/10/10 09:47:57;;;;;;;8.70;3.80;;;;;;;13.93;63.19;98583.73;106863;1299;22198;-94
2022/10/10 09:50:25;;;;;;;6.90;3.60;;;;;;;14.02;62.87;98583.08;106758;1305;22217;-92
2022/10/10 09:52:55;;;;;;;9.70;4.90;;;;;;;14.13;62.77;98578.79;106751;1310;23005;-92
2022/10/10 09:55:25;;;;;;;9.50;4.90;;;;;;;14.22;62.19;98574.79;106781;1304;22877;-92
2022/10/10 09:58:00;;;;;;;9.10;5.40;;;;;;;14.32;62.78;98567.95;106577;1312;22208;-91
2022/10/10 10:00:34;;;;;;;9.40;5.10;;;;;;;14.46;61.50;98561.96;106767;1312;22163;-91
2022/10/10 10:03:15;;;;;;;8.30;5.00;;;;;;;14.58;61.80;98560.70;106811;1305;22295;-91
2022/10/10 10:05:57;;;;;;;9.90;5.70;;;;;;;14.68;61.54;98561.64;106663;1312;135783;-91
2022/10/10 10:08:28;;;;;;;;;;;;;;;14.74;60.28;98556.66;106970;1290;22268;-93
2022/10/10 10:10:57;;;;;;;12.20;4.40;;;;;;;14.80;60.75;98556.48;106715;1312;22242;-92
2022/10/10 10:13:29;;;;;;;8.20;4.10;;;;;;;14.91;60.92;98558.14;106473;1314;22223;-91
2022/10/10 10:16:10;;;;;;;7.50;4.10;;;;;;;15.02;59.68;98559.69;106626;1312;22182;-92
2022/10/10 10:18:44;;;;;;;8.00;4.40;;;;;;;15.10;60.57;98556.77;106658;1312;22821;-89
2022/10/10 10:21:19;;;;;;;7.20;3.80;;;;;;;15.23;59.39;98553.98;106778;1305;22188;-87
2022/10/10 10:24:15;;;;;;;9.00;4.30;;;;;;;15.29;59.09;98546.85;106848;1312;22135;-91
2022/10/10 10:26:46;;;;;;;10.60;4.60;;;;;;;15.41;58.91;98540.12;107033;1290;22270;-90
2022/10/10 10:29:28;;;;;;;12.60;5.20;;;;;;;15.48;57.66;98540.47;106610;1312;22188;-91
2022/10/10 10:32:33;;;;;;;9.70;4.70;;;;;;;15.53;57.69;98536.25;106700;1311;22196;-92
2022/10/10 10:35:26;;;;;;;10.70;4.70;;;;;;;15.62;57.65;98532.80;106999;1305;22144;-95
2022/10/10 10:38:00;;;;;;;5.20;4.20;;;;;;;15.71;57.40;98525.27;106982;1305;22102;-93
2022/10/10 10:40:33;;;;;;;8.80;4.60;;;;;;;15.79;56.36;98526.66;106989;1305;22165;-90
2022/10/10 10:43:19;;;;;;;23.00;5.10;;;;;;;15.86;56.99;98524.17;106973;1305;22096;-94
2022/10/10 10:46:06;;;;;;;8.30;4.40;;;;;;;15.97;56.89;98520.25;106964;1305;22458;-89
2022/10/10 10:48:45;;;;;;;12.40;5.20;;;;;;;16.13;56.27;98518.34;106956;1305;22164;-93
2022/10/10 10:51:40;;;;;;;12.70;5.60;;;;;;;16.24;55.94;98518.17;106860;1305;22169;-90
2022/10/10 10:54:24;;;;;;;9.40;4.80;;;;;;;16.30;56.21;98515.48;107016;1299;22151;-86
2022/10/10 10:56:52;;;;;;;13.00;5.00;;;;;;;16.41;55.56;98508.60;106980;1287;22178;-92
2022/10/10 11:00:00;;;;;;;11.70;4.80;;;;;;;16.46;54.64;98506.64;106729;1301;22188;-90
2022/10/10 11:03:25;;;;;;;8.80;4.20;;;;;;;16.53;54.79;98506.02;106682;1312;22107;-91
2022/10/10 11:06:48;;;;;;;10.00;4.70;;;;;;;16.73;55.51;98500.84;106656;1311;22172;-91
2022/10/10 11:09:43;;;;;;;12.40;5.10;;;;;;;16.88;55.32;98499.17;106644;1305;22090;-92
2022/10/10 11:12:59;;;;;;;12.30;4.90;;;;;;;17.01;55.45;98496.48;106974;1304;22123;-92
2022/10/10 11:15:43;;;;;;;109.90;12.80;;;;;;;17.17;55.17;98489.73;106402;1306;22170;-90
2022/10/10 11:18:38;;;;;;;26.90;8.80;;;;;;;17.31;54.21;98489.04;106311;1309;22283;-92
2022/10/10 11:21:16;;;;;;;27.20;6.20;;;;;;;17.49;54.85;98490.98;106283;1306;22853;-91
2022/10/10 11:24:05;;;;;;;493.40;35.40;;;;;;;17.63;53.47;98487.75;105804;1318;22235;-92
2022/10/10 11:26:41;;;;;;;15.20;4.60;;;;;;;17.78;53.68;98484.58;106319;1292;22220;-92
2022/10/10 11:29:21;;;;;;;10.50;4.80;;;;;;;17.90;53.40;98478.00;106266;1310;22279;-91
2022/10/10 11:31:58;;;;;;;23.20;5.20;;;;;;;18.01;52.89;98479.82;105989;1312;22986;-92
2022/10/10 11:34:29;;;;;;;12.70;4.20;;;;;;;18.04;51.45;98473.89;106206;1309;22153;-91
2022/10/10 11:37:04;;;;;;;11.80;3.90;;;;;;;17.96;50.57;98471.93;105802;1318;22133;-93
2022/10/10 11:39:35;;;;;;;8.90;4.20;;;;;;;17.99;50.68;98472.13;105946;1318;22223;-92
2022/10/10 11:42:14;;;;;;;12.40;4.40;;;;;;;18.02;50.21;98469.60;106314;1296;23452;-91
2022/10/10 11:44:51;;;;;;;9.30;3.90;;;;;;;18.07;50.64;98465.88;105977;1318;22269;-92
2022/10/10 11:47:44;;;;;;;10.40;4.30;;;;;;;18.11;50.49;98464.68;106502;1310;22188;-92
2022/10/10 11:50:22;;;;;;;16.10;4.00;;;;;;;18.15;49.86;98464.77;106666;1309;22793;-92
2022/10/10 11:53:04;;;;;;;8.00;3.70;;;;;;;18.19;48.62;98462.08;106803;1290;22937;-92
2022/10/10 11:56:29;;;;;;;13.40;4.10;;;;;;;18.20;48.24;98459.34;106670;1309;23000;-94
2022/10/10 11:59:06;;;;;;;7.00;3.40;;;;;;;18.22;46.34;98455.04;106292;1315;22204;-94
2022/10/10 12:01:45;;;;;;;7.00;3.80;;;;;;;18.17;46.31;98451.45;106586;1308;22289;-91
2022/10/10 12:04:14;;;;;;;14.80;3.70;;;;;;;18.19;46.94;98450.34;106540;1308;22238;-91